createdAt,value
2023-03-01T00:00:31.151Z,-3.36
2023-03-01T00:03:35.928Z,-3.34
2023-03-01T00:06:40.387Z,-3.32
2023-03-01T00:09:46.910Z,-3.35
2023-03-01T00:12:52.306Z,-3.28
2023-03-01T00:15:56.167Z,-3.27
2023-03-01T00:19:00.669Z,-3.27
2023-03-01T00:22:04.840Z,-3.30
2023-03-01T00:25:09.536Z,-3.25
2023-03-01T00:28:15.291Z,-3.28
2023-03-01T00:31:22.917Z,-3.31
2023-03-01T00:34:26.813Z,-3.37
2023-03-01T00:37:30.587Z,-3.36
2023-03-01T00:40:37.521Z,-3.34
2023-03-01T00:43:42.978Z,-3.39
2023-03-01T00:46:46.788Z,-3.40
2023-03-01T00:49:51.435Z,-3.37
2023-03-01T00:52:56.324Z,-3.41
2023-03-01T00:56:00.565Z,-3.41
2023-03-01T00:59:05.779Z,-3.46
2023-03-01T01:02:09.466Z,-3.44
2023-03-01T01:05:14.304Z,-3.46
2023-03-01T01:08:18.071Z,-3.46
2023-03-01T01:11:23.478Z,-3.48
2023-03-01T01:14:28.791Z,-3.47
2023-03-01T01:17:32.748Z,-3.46
2023-03-01T01:20:38.868Z,-3.46
2023-03-01T01:23:43.942Z,-3.46
2023-03-01T01:26:48.327Z,-3.48
2023-03-01T01:29:55.650Z,-3.48
2023-03-01T01:32:59.474Z,-3.50
2023-03-01T01:36:03.980Z,-3.47
2023-03-01T01:39:08.213Z,-3.48
2023-03-01T01:42:18.064Z,-3.51
2023-03-01T01:45:35.205Z,-3.55
2023-03-01T01:48:47.494Z,-3.55
2023-03-01T01:52:00.364Z,-3.58
2023-03-01T01:55:11.037Z,-3.58
2023-03-01T01:58:21.332Z,-3.60
2023-03-01T02:01:27.588Z,-3.59
2023-03-01T02:04:32.838Z,-3.58
2023-03-01T02:07:36.710Z,-3.63
2023-03-01T02:10:41.592Z,-3.62
2023-03-01T02:13:47.425Z,-3.60
2023-03-01T02:16:52.870Z,-3.63
2023-03-01T02:20:14.159Z,-3.68
2023-03-01T02:23:18.400Z,-3.70
2023-03-01T02:26:35.476Z,-3.66
2023-03-01T02:29:45.013Z,-3.70
2023-03-01T02:32:50.580Z,-3.72
2023-03-01T02:35:57.705Z,-3.76
2023-03-01T02:39:06.867Z,-3.74
2023-03-01T02:42:17.046Z,-3.80
2023-03-01T02:45:22.790Z,-3.75
2023-03-01T02:48:26.544Z,-3.78
2023-03-01T02:51:50.549Z,-3.80
2023-03-01T02:55:00.801Z,-3.81
2023-03-01T02:58:05.987Z,-3.79
2023-03-01T03:01:11.009Z,-3.75
2023-03-01T03:04:19.247Z,-3.80
2023-03-01T03:07:22.807Z,-3.94
2023-03-01T03:10:30.115Z,-3.96
2023-03-01T03:13:33.821Z,-3.96
2023-03-01T03:16:38.844Z,-3.97
2023-03-01T03:19:42.429Z,-3.93
2023-03-01T03:22:46.548Z,-3.98
2023-03-01T03:25:52.162Z,-4.08
2023-03-01T03:28:55.892Z,-4.02
2023-03-01T03:32:01.095Z,-4.01
2023-03-01T03:35:10.275Z,-3.99
2023-03-01T03:38:20.160Z,-4.04
2023-03-01T03:41:23.776Z,-4.07
2023-03-01T03:44:27.412Z,-4.12
2023-03-01T03:47:32.408Z,-4.12
2023-03-01T03:50:36.440Z,-4.08
2023-03-01T03:53:40.289Z,-4.03
2023-03-01T03:56:45.078Z,-4.03
2023-03-01T03:59:48.785Z,-4.14
2023-03-01T04:02:57.613Z,-4.15
2023-03-01T04:06:02.297Z,-4.10
2023-03-01T04:09:05.945Z,-4.14
2023-03-01T04:12:09.637Z,-4.15
2023-03-01T04:15:17.365Z,-4.22
2023-03-01T04:18:25.572Z,-4.23
2023-03-01T04:21:29.304Z,-4.21
2023-03-01T04:24:33.029Z,-4.24
2023-03-01T04:27:37.201Z,-4.21
2023-03-01T04:30:42.480Z,-4.20
2023-03-01T04:33:50.085Z,-4.21
2023-03-01T04:36:53.882Z,-4.22
2023-03-01T04:39:57.552Z,-4.25
2023-03-01T04:43:01.254Z,-4.23
2023-03-01T04:46:09.307Z,-4.25
2023-03-01T04:49:14.437Z,-4.27
2023-03-01T04:52:18.025Z,-4.28
2023-03-01T04:55:21.995Z,-4.24
2023-03-01T04:58:26.171Z,-4.21
2023-03-01T05:01:29.853Z,-4.22
2023-03-01T05:04:34.926Z,-4.31
2023-03-01T05:07:38.599Z,-4.33
2023-03-01T05:10:43.038Z,-4.30
2023-03-01T05:13:46.795Z,-4.31
2023-03-01T05:16:50.409Z,-4.26
2023-03-01T05:19:56.685Z,-4.33
2023-03-01T05:23:06.322Z,-4.35
2023-03-01T05:26:22.457Z,-4.37
2023-03-01T05:29:35.915Z,-4.38
2023-03-01T05:32:39.619Z,-4.36
2023-03-01T05:35:46.261Z,-4.30
2023-03-01T05:38:49.958Z,-4.32
2023-03-01T05:41:56.134Z,-4.32
2023-03-01T05:44:59.906Z,-4.23
2023-03-01T05:48:03.696Z,-4.22
2023-03-01T05:51:08.912Z,-4.25
2023-03-01T05:54:13.089Z,-4.31
2023-03-01T05:57:16.807Z,-4.25
2023-03-01T06:00:24.339Z,-4.26
2023-03-01T06:03:28.189Z,-4.21
2023-03-01T06:06:38.503Z,-4.21
2023-03-01T06:09:42.193Z,-4.30
2023-03-01T06:12:46.157Z,-4.32
2023-03-01T06:15:49.833Z,-4.32
2023-03-01T06:18:53.508Z,-4.26
2023-03-01T06:21:58.493Z,-4.26
2023-03-01T06:25:05.140Z,-4.20
2023-03-01T06:28:08.666Z,-4.17
2023-03-01T06:31:12.314Z,-4.16
2023-03-01T06:34:16.596Z,-4.09
2023-03-01T06:37:21.634Z,-3.99
2023-03-01T06:40:25.442Z,-3.92
2023-03-01T06:43:29.082Z,-3.78
2023-03-01T06:46:33.301Z,-3.79
2023-03-01T06:49:37.189Z,-3.79
2023-03-01T06:52:42.238Z,-3.71
2023-03-01T06:55:45.856Z,-3.56
2023-03-01T06:58:49.424Z,-3.60
2023-03-01T07:01:53.143Z,-3.47
2023-03-01T07:04:56.781Z,-3.29
2023-03-01T07:08:01.766Z,-3.17
2023-03-01T07:11:06.723Z,-3.06
2023-03-01T07:14:10.367Z,-3.01
2023-03-01T07:17:14.287Z,-3.10
2023-03-01T07:20:18.349Z,-2.99
2023-03-01T07:23:23.463Z,-2.94
2023-03-01T07:26:27.180Z,-2.81
2023-03-01T07:29:31.027Z,-2.55
2023-03-01T07:32:34.764Z,-2.58
2023-03-01T07:35:38.492Z,-2.59
2023-03-01T07:38:43.760Z,-2.37
2023-03-01T07:41:47.904Z,-2.43
2023-03-01T07:44:51.677Z,-2.40
2023-03-01T07:47:56.577Z,-2.42
2023-03-01T07:51:01.776Z,-2.43
2023-03-01T07:54:07.509Z,-2.28
2023-03-01T07:57:11.154Z,-2.20
2023-03-01T08:00:16.169Z,-2.11
2023-03-01T08:03:19.872Z,-1.98
2023-03-01T08:06:23.776Z,-1.79
2023-03-01T08:09:28.942Z,-1.77
2023-03-01T08:12:32.649Z,-1.59
2023-03-01T08:15:47.232Z,-1.48
2023-03-01T08:18:51.159Z,-1.21
2023-03-01T08:21:54.974Z,-1.03
2023-03-01T08:25:00.377Z,-0.86
2023-03-01T08:28:04.243Z,-0.71
2023-03-01T08:31:18.469Z,-0.48
2023-03-01T08:34:22.270Z,-0.67
2023-03-01T08:37:26.025Z,-0.58
2023-03-01T08:40:31.386Z,-0.45
2023-03-01T08:43:35.278Z,0.02
2023-03-01T08:46:42.327Z,0.54
2023-03-01T08:49:46.292Z,0.07
2023-03-01T08:52:50.239Z,0.26
2023-03-01T08:55:55.955Z,0.17
2023-03-01T08:59:00.184Z,0.38
2023-03-01T09:02:04.071Z,0.50
2023-03-01T09:05:08.644Z,0.58
2023-03-01T09:08:12.403Z,0.72
2023-03-01T09:11:20.834Z,0.98
2023-03-01T09:14:25.027Z,1.06
2023-03-01T09:17:28.983Z,1.28
2023-03-01T09:20:34.601Z,1.40
2023-03-01T09:23:40.707Z,1.36
2023-03-01T09:26:48.866Z,1.42
2023-03-01T09:29:53.733Z,1.57
2023-03-01T09:32:59.529Z,1.84
2023-03-01T09:36:05.773Z,1.94
2023-03-01T09:39:09.935Z,1.55
2023-03-01T09:42:17.254Z,1.92
2023-03-01T09:45:32.079Z,2.14
2023-03-01T09:48:45.026Z,2.25
2023-03-01T09:52:01.539Z,2.58
2023-03-01T09:55:15.224Z,2.23
2023-03-01T09:58:49.687Z,2.29
2023-03-01T10:02:02.184Z,2.51
2023-03-01T10:05:36.815Z,2.63
2023-03-01T10:08:49.455Z,2.88
2023-03-01T10:11:57.818Z,3.10
2023-03-01T10:15:11.687Z,3.14
2023-03-01T10:18:21.702Z,3.28
2023-03-01T10:21:25.950Z,3.46
2023-03-01T10:24:39.084Z,3.45
2023-03-01T10:27:53.698Z,3.61
2023-03-01T10:31:01.419Z,3.23
2023-03-01T10:34:09.830Z,3.59
2023-03-01T10:37:19.355Z,3.63
2023-03-01T10:40:23.216Z,3.59
2023-03-01T10:43:31.987Z,3.90
2023-03-01T10:46:40.009Z,4.05
2023-03-01T10:53:50.351Z,4.12
2023-03-01T10:56:57.382Z,4.20
2023-03-01T11:00:23.661Z,4.32
2023-03-01T11:03:32.038Z,4.66
2023-03-01T11:06:37.677Z,4.72
2023-03-01T11:09:41.621Z,4.47
2023-03-01T11:12:45.500Z,5.05
2023-03-01T11:16:03.083Z,4.86
2023-03-01T11:19:24.055Z,5.07
2023-03-01T11:22:28.161Z,5.44
2023-03-01T11:25:39.747Z,5.50
2023-03-01T11:28:47.084Z,5.56
2023-03-01T11:31:57.817Z,5.60
2023-03-01T11:35:16.965Z,5.50
2023-03-01T11:38:26.916Z,5.22
2023-03-01T11:41:36.455Z,5.28
2023-03-01T11:44:44.561Z,5.35
2023-03-01T11:48:49.434Z,5.49
2023-03-01T11:52:09.176Z,5.35
2023-03-01T11:55:32.821Z,5.15
2023-03-01T11:59:05.234Z,5.29
2023-03-01T12:03:12.541Z,5.69
2023-03-01T12:06:45.596Z,5.64
2023-03-01T12:10:17.973Z,5.49
2023-03-01T12:13:59.036Z,5.58
2023-03-01T12:17:28.429Z,5.53
2023-03-01T12:20:49.547Z,5.52
2023-03-01T12:24:47.510Z,5.66
2023-03-01T12:28:22.167Z,5.66
2023-03-01T12:32:11.602Z,5.44
2023-03-01T12:36:05.590Z,5.69
2023-03-01T12:39:34.776Z,5.69
2023-03-01T12:42:58.580Z,5.70
2023-03-01T12:46:35.849Z,5.67
2023-03-01T12:49:47.657Z,5.70
2023-03-01T12:52:55.319Z,5.80
2023-03-01T12:56:04.231Z,5.66
2023-03-01T12:59:20.473Z,6.01
2023-03-01T13:02:33.959Z,6.09
2023-03-01T13:05:54.524Z,6.20
2023-03-01T13:09:11.234Z,6.01
2023-03-01T13:13:03.751Z,6.08
2023-03-01T13:16:46.117Z,5.95
2023-03-01T13:20:01.339Z,6.08
2023-03-01T13:23:15.776Z,6.21
2023-03-01T13:26:20.821Z,6.28
2023-03-01T13:29:49.300Z,6.04
2023-03-01T13:32:53.664Z,6.18
2023-03-01T13:36:00.715Z,6.19
2023-03-01T13:39:27.603Z,6.26
2023-03-01T13:42:56.309Z,6.10
2023-03-01T13:46:13.349Z,6.50
2023-03-01T13:49:21.330Z,6.10
2023-03-01T13:52:41.570Z,6.51
2023-03-01T13:55:49.710Z,6.32
2023-03-01T13:58:57.751Z,6.32
2023-03-01T14:02:03.152Z,6.42
2023-03-01T14:05:12.721Z,6.48
2023-03-01T14:08:27.925Z,6.44
2023-03-01T14:12:14.997Z,6.66
2023-03-01T14:15:31.389Z,6.56
2023-03-01T14:18:47.982Z,6.70
2023-03-01T14:22:15.222Z,6.49
2023-03-01T14:25:31.091Z,6.69
2023-03-01T14:28:39.254Z,6.79
2023-03-01T14:31:52.701Z,6.98
2023-03-01T14:35:00.535Z,7.17
2023-03-01T14:38:05.231Z,7.03
2023-03-01T14:41:16.102Z,6.80
2023-03-01T14:44:25.820Z,6.76
2023-03-01T14:47:33.629Z,6.61
2023-03-01T14:50:43.555Z,6.37
2023-03-01T14:53:51.308Z,6.22
2023-03-01T14:57:02.441Z,6.29
2023-03-01T15:00:10.745Z,6.39
2023-03-01T15:03:21.678Z,6.39
2023-03-01T15:06:26.528Z,6.34
2023-03-01T15:09:30.721Z,6.34
2023-03-01T15:12:43.123Z,6.36
2023-03-01T15:15:50.853Z,6.41
2023-03-01T15:18:58.858Z,6.30
2023-03-01T15:22:13.142Z,6.18
2023-03-01T15:25:20.316Z,6.22
2023-03-01T15:28:28.815Z,6.21
2023-03-01T15:31:39.681Z,6.15
2023-03-01T15:34:43.317Z,6.15
2023-03-01T15:37:50.579Z,6.11
2023-03-01T15:40:55.715Z,6.13
2023-03-01T15:44:02.114Z,6.04
2023-03-01T15:47:27.774Z,5.99
2023-03-01T15:50:35.099Z,5.91
2023-03-01T15:53:53.704Z,5.83
2023-03-01T15:56:58.123Z,5.82
2023-03-01T16:00:04.257Z,5.71
2023-03-01T16:03:10.073Z,5.77
2023-03-01T16:06:14.693Z,5.76
2023-03-01T16:09:18.736Z,5.82
2023-03-01T16:12:22.605Z,5.76
2023-03-01T16:15:32.974Z,5.61
2023-03-01T16:18:36.826Z,5.57
2023-03-01T16:21:40.641Z,5.51
2023-03-01T16:24:44.202Z,5.48
2023-03-01T16:27:50.615Z,5.35
2023-03-01T16:30:55.711Z,5.28
2023-03-01T16:34:01.361Z,5.17
2023-03-01T16:37:05.083Z,5.06
2023-03-01T16:40:20.189Z,5.01
2023-03-01T16:43:23.818Z,4.92
2023-03-01T16:46:30.809Z,4.78
2023-03-01T16:49:34.429Z,4.70
2023-03-01T16:52:38.295Z,4.63
2023-03-01T16:55:46.421Z,4.58
2023-03-01T16:58:50.341Z,4.49
2023-03-01T17:01:55.358Z,4.41
2023-03-01T17:04:59.187Z,4.31
2023-03-01T17:08:02.884Z,4.22
2023-03-01T17:11:09.592Z,4.20
2023-03-01T17:14:13.315Z,4.10
2023-03-01T17:17:18.262Z,4.00
2023-03-01T17:20:22.493Z,3.89
2023-03-01T17:23:26.273Z,3.82
2023-03-01T17:26:30.659Z,3.75
2023-03-01T17:29:35.023Z,3.64
2023-03-01T17:32:40.335Z,3.57
2023-03-01T17:35:47.297Z,3.47
2023-03-01T17:38:52.036Z,3.38
2023-03-01T17:41:56.759Z,3.33
2023-03-01T17:45:00.713Z,3.22
2023-03-01T17:48:07.191Z,3.12
2023-03-01T17:51:13.266Z,3.05
2023-03-01T17:54:17.186Z,2.98
2023-03-01T17:57:21.037Z,2.89
2023-03-01T18:00:25.719Z,2.79
2023-03-01T18:03:30.926Z,2.73
2023-03-01T18:06:34.749Z,2.62
2023-03-01T18:09:38.422Z,2.50
2023-03-01T18:12:42.101Z,2.43
2023-03-01T18:15:45.775Z,2.34
2023-03-01T18:18:56.391Z,2.26
2023-03-01T18:22:00.227Z,2.10
2023-03-01T18:25:04.994Z,2.00
2023-03-01T18:28:08.787Z,1.83
2023-03-01T18:31:12.798Z,1.70
2023-03-01T18:34:17.939Z,1.47
2023-03-01T18:37:21.693Z,1.39
2023-03-01T18:40:25.499Z,1.29
2023-03-01T18:43:30.110Z,1.23
2023-03-01T18:46:37.913Z,1.19
2023-03-01T18:49:43.913Z,1.17
2023-03-01T18:52:47.567Z,1.14
2023-03-01T18:55:51.437Z,1.08
2023-03-01T18:58:56.203Z,1.01
2023-03-01T19:02:00.680Z,1.02
2023-03-01T19:05:06.806Z,0.99
2023-03-01T19:08:10.653Z,0.91
2023-03-01T19:11:17.937Z,0.91
2023-03-01T19:14:21.651Z,0.92
2023-03-01T19:17:30.571Z,0.89
2023-03-01T19:20:35.638Z,0.88
2023-03-01T19:23:40.086Z,0.80
2023-03-01T19:26:44.049Z,0.83
2023-03-01T19:29:47.814Z,0.84
2023-03-01T19:32:52.257Z,0.85
2023-03-01T19:35:57.890Z,0.85
2023-03-01T19:39:04.000Z,0.78
2023-03-01T19:42:07.871Z,0.74
2023-03-01T19:45:12.886Z,0.65
2023-03-01T19:48:17.420Z,0.67
2023-03-01T19:51:22.875Z,0.70
2023-03-01T19:54:26.813Z,0.72
2023-03-01T19:57:30.579Z,0.70
2023-03-01T20:00:34.776Z,0.66
2023-03-01T20:03:38.620Z,0.63
2023-03-01T20:06:47.212Z,0.66
2023-03-01T20:09:50.871Z,0.60
2023-03-01T20:12:54.495Z,0.60
2023-03-01T20:15:58.298Z,0.59
2023-03-01T20:19:02.390Z,0.62
2023-03-01T20:22:07.538Z,0.61
2023-03-01T20:25:12.722Z,0.66
2023-03-01T20:28:16.579Z,0.65
2023-03-01T20:31:24.002Z,0.68
2023-03-01T20:34:27.832Z,0.64
2023-03-01T20:37:33.288Z,0.65
2023-03-01T20:40:38.308Z,0.67
2023-03-01T20:43:44.090Z,0.64
2023-03-01T20:46:47.929Z,0.65
2023-03-01T20:49:53.339Z,0.64
2023-03-01T20:52:58.442Z,0.56
2023-03-01T20:56:04.404Z,0.45
2023-03-01T20:59:10.057Z,0.44
2023-03-01T21:02:13.705Z,0.37
2023-03-01T21:05:17.668Z,0.43
2023-03-01T21:08:22.663Z,0.35
2023-03-01T21:11:26.371Z,0.25
2023-03-01T21:14:30.038Z,0.19
2023-03-01T21:17:34.916Z,0.14
2023-03-01T21:20:42.889Z,0.10
2023-03-01T21:23:48.976Z,0.03
2023-03-01T21:26:52.637Z,0.01
2023-03-01T21:29:56.291Z,-0.05
2023-03-01T21:32:59.894Z,-0.04
2023-03-01T21:36:07.201Z,-0.08
2023-03-01T21:39:12.936Z,-0.14
2023-03-01T21:42:16.631Z,-0.20
2023-03-01T21:45:25.413Z,-0.33
2023-03-01T21:48:29.329Z,-0.37
2023-03-01T21:51:34.240Z,-0.37
2023-03-01T21:54:39.364Z,-0.41
2023-03-01T21:57:44.585Z,-0.47
2023-03-01T22:00:49.085Z,-0.51
2023-03-01T22:03:52.823Z,-0.58
2023-03-01T22:06:56.470Z,-0.61
2023-03-01T22:10:01.624Z,-0.70
2023-03-01T22:13:05.226Z,-0.69
2023-03-01T22:16:09.252Z,-0.77
2023-03-01T22:19:15.050Z,-0.73
2023-03-01T22:22:18.664Z,-0.81
2023-03-01T22:25:23.744Z,-0.84
2023-03-01T22:28:27.579Z,-0.84
2023-03-01T22:31:32.084Z,-1.03
2023-03-01T22:34:35.971Z,-0.94
2023-03-01T22:37:40.600Z,-1.06
2023-03-01T22:40:45.587Z,-1.09
2023-03-01T22:43:49.212Z,-0.98
2023-03-01T22:46:53.698Z,-1.04
2023-03-01T22:49:57.930Z,-1.00
2023-03-01T22:53:01.547Z,-0.99
2023-03-01T22:56:15.492Z,-0.93
2023-03-01T22:59:24.010Z,-1.01
2023-03-01T23:02:28.501Z,-0.98
2023-03-01T23:05:32.169Z,-1.05
2023-03-01T23:08:36.091Z,-1.06
2023-03-01T23:11:41.104Z,-1.07
2023-03-01T23:14:44.754Z,-1.07
2023-03-01T23:17:48.387Z,-1.15
2023-03-01T23:20:52.141Z,-1.20
2023-03-01T23:23:56.904Z,-1.14
2023-03-01T23:27:04.610Z,-1.10
2023-03-01T23:30:10.303Z,-1.16
2023-03-01T23:33:13.920Z,-1.23
2023-03-01T23:36:21.248Z,-1.24
2023-03-01T23:39:24.991Z,-1.22
2023-03-01T23:42:29.944Z,-1.23
2023-03-01T23:45:33.558Z,-1.28
2023-03-01T23:48:37.241Z,-1.30
2023-03-01T23:51:44.635Z,-1.34
2023-03-01T23:54:48.209Z,-1.29
2023-03-01T23:57:53.323Z,-1.44
